createdAt,value
2023-06-19T00:00:58.314Z,47.46
2023-06-19T00:01:58.300Z,47.61
2023-06-19T00:02:58.462Z,47.38
2023-06-19T00:03:58.547Z,47.67
2023-06-19T00:04:58.516Z,47.68
2023-06-19T00:05:58.611Z,47.89
2023-06-19T00:06:58.753Z,47.74
2023-06-19T00:07:58.778Z,47.82
2023-06-19T00:08:58.866Z,47.37
2023-06-19T00:09:58.976Z,47.27
2023-06-19T00:10:58.997Z,47.04
2023-06-19T00:11:59.109Z,47.16
2023-06-19T00:12:59.188Z,47.17
2023-06-19T00:13:59.842Z,47.09
2023-06-19T00:14:59.401Z,47.26
2023-06-19T00:15:59.485Z,47.46
2023-06-19T00:16:59.549Z,47.22
2023-06-19T00:17:59.827Z,47.10
2023-06-19T00:18:59.696Z,47.17
2023-06-19T00:19:59.849Z,47.23
2023-06-19T00:20:59.921Z,47.45
2023-06-19T00:21:59.980Z,47.29
2023-06-19T00:23:00.049Z,47.26
2023-06-19T00:24:00.140Z,47.13
2023-06-19T00:25:00.277Z,47.30
2023-06-19T00:26:00.275Z,47.56
2023-06-19T00:27:00.360Z,47.86
2023-06-19T00:28:00.446Z,47.83
2023-06-19T00:29:00.506Z,47.91
2023-06-19T00:30:00.577Z,48.09
2023-06-19T00:31:01.332Z,47.81
2023-06-19T00:32:00.855Z,47.91
2023-06-19T00:33:00.931Z,48.58
2023-06-19T00:34:00.999Z,48.52
2023-06-19T00:35:01.107Z,48.61
2023-06-19T00:36:01.180Z,48.32
2023-06-19T00:37:01.292Z,48.61
2023-06-19T00:38:01.366Z,48.42
2023-06-19T00:39:01.467Z,48.57
2023-06-19T00:40:01.555Z,48.08
2023-06-19T00:41:01.622Z,48.12
2023-06-19T00:42:01.841Z,48.19
2023-06-19T00:43:01.860Z,48.71
2023-06-19T00:44:01.952Z,48.67
2023-06-19T00:45:02.042Z,48.54
2023-06-19T00:46:02.195Z,48.52
2023-06-19T00:47:02.230Z,48.45
2023-06-19T00:48:02.466Z,48.59
2023-06-19T00:49:02.401Z,48.38
2023-06-19T00:50:02.526Z,48.16
2023-06-19T00:51:02.600Z,47.95
2023-06-19T00:52:02.696Z,47.98
2023-06-19T00:53:02.796Z,47.65
2023-06-19T00:54:02.892Z,47.90
2023-06-19T00:55:02.993Z,48.05
2023-06-19T00:56:03.095Z,48.33
2023-06-19T00:57:03.204Z,48.35
2023-06-19T00:58:03.424Z,48.44
2023-06-19T00:59:03.402Z,48.41
2023-06-19T01:00:03.504Z,48.04
2023-06-19T01:01:08.693Z,47.95
2023-06-19T01:02:04.704Z,48.27
2023-06-19T01:03:03.766Z,48.31
2023-06-19T01:04:03.932Z,48.50
2023-06-19T01:05:03.851Z,48.38
2023-06-19T01:06:03.910Z,48.31
2023-06-19T01:07:03.963Z,48.30
2023-06-19T01:08:04.047Z,48.15
2023-06-19T01:09:04.075Z,48.02
2023-06-19T01:10:04.156Z,47.76
2023-06-19T01:11:11.814Z,47.39
2023-06-19T01:12:05.281Z,47.38
2023-06-19T01:13:04.344Z,47.44
2023-06-19T01:14:04.403Z,47.30
2023-06-19T01:15:04.479Z,47.26
2023-06-19T01:16:04.551Z,47.17
2023-06-19T01:17:04.652Z,47.03
2023-06-19T01:18:04.821Z,46.86
2023-06-19T01:19:04.765Z,46.79
2023-06-19T01:20:04.845Z,47.06
2023-06-19T01:21:04.914Z,47.21
2023-06-19T01:22:05.353Z,47.26
2023-06-19T01:23:05.070Z,47.41
2023-06-19T01:24:05.347Z,47.55
2023-06-19T01:25:05.315Z,47.70
2023-06-19T01:26:05.445Z,47.91
2023-06-19T01:27:05.551Z,47.93
2023-06-19T01:28:05.685Z,48.16
2023-06-19T01:29:05.849Z,48.90
2023-06-19T01:30:05.908Z,48.64
2023-06-19T01:31:06.022Z,48.48
2023-06-19T01:32:06.347Z,48.79
2023-06-19T01:33:06.353Z,48.65
2023-06-19T01:34:06.399Z,48.43
2023-06-19T01:35:06.533Z,48.33
2023-06-19T01:36:06.674Z,48.55
2023-06-19T01:37:06.807Z,48.53
2023-06-19T01:38:06.946Z,48.68
2023-06-19T01:39:07.078Z,48.91
2023-06-19T01:40:07.206Z,48.61
2023-06-19T01:41:07.321Z,48.63
2023-06-19T01:42:07.437Z,48.59
2023-06-19T01:43:07.560Z,48.88
2023-06-19T01:44:07.693Z,49.18
2023-06-19T01:45:07.834Z,49.41
2023-06-19T01:46:07.985Z,49.26
2023-06-19T01:47:08.051Z,49.17
2023-06-19T01:48:08.206Z,49.38
2023-06-19T01:49:08.299Z,49.44
2023-06-19T01:50:09.367Z,49.51
2023-06-19T01:51:08.616Z,49.37
2023-06-19T01:52:08.856Z,49.22
2023-06-19T01:53:08.769Z,49.26
2023-06-19T01:54:08.874Z,49.10
2023-06-19T01:55:08.981Z,49.10
2023-06-19T01:56:09.093Z,49.04
2023-06-19T01:57:09.214Z,49.09
2023-06-19T01:58:09.324Z,49.47
2023-06-19T01:59:09.439Z,49.40
2023-06-19T02:00:09.572Z,49.09
2023-06-19T02:01:09.679Z,49.26
2023-06-19T02:02:09.839Z,49.22
2023-06-19T02:03:10.049Z,49.16
2023-06-19T02:04:10.073Z,49.16
2023-06-19T02:05:10.193Z,49.22
2023-06-19T02:06:10.319Z,49.31
2023-06-19T02:07:10.471Z,49.04
2023-06-19T02:08:10.585Z,49.92
2023-06-19T02:09:11.365Z,49.80
2023-06-19T02:10:10.910Z,49.58
2023-06-19T02:11:10.980Z,49.52
2023-06-19T02:12:11.117Z,49.47
2023-06-19T02:13:11.257Z,49.49
2023-06-19T02:14:11.374Z,49.49
2023-06-19T02:15:11.581Z,49.64
2023-06-19T02:16:11.673Z,49.46
2023-06-19T02:17:11.769Z,49.43
2023-06-19T02:18:11.885Z,49.61
2023-06-19T02:19:12.034Z,49.59
2023-06-19T02:20:12.192Z,49.71
2023-06-19T02:21:12.331Z,49.63
2023-06-19T02:22:12.477Z,49.47
2023-06-19T02:23:12.628Z,49.41
2023-06-19T02:24:12.784Z,49.45
2023-06-19T02:25:12.905Z,49.47
2023-06-19T02:26:13.042Z,49.40
2023-06-19T02:27:13.186Z,49.26
2023-06-19T02:28:13.330Z,49.27
2023-06-19T02:29:13.516Z,49.33
2023-06-19T02:30:13.609Z,49.47
2023-06-19T02:31:13.740Z,49.38
2023-06-19T02:32:13.879Z,49.52
2023-06-19T02:33:14.000Z,49.44
2023-06-19T02:34:14.134Z,49.36
2023-06-19T02:35:14.260Z,49.13
2023-06-19T02:36:14.385Z,48.89
2023-06-19T02:37:14.531Z,48.72
2023-06-19T02:38:14.655Z,48.87
2023-06-19T02:39:14.848Z,48.25
2023-06-19T02:40:14.945Z,48.84
2023-06-19T02:41:15.068Z,48.50
2023-06-19T02:42:15.208Z,48.21
2023-06-19T02:43:15.331Z,48.36
2023-06-19T02:44:15.453Z,48.17
2023-06-19T02:45:15.581Z,48.16
2023-06-19T02:46:15.739Z,48.17
2023-06-19T02:47:15.813Z,48.00
2023-06-19T02:48:15.926Z,47.79
2023-06-19T02:49:16.044Z,47.77
2023-06-19T02:50:16.154Z,47.84
2023-06-19T02:51:16.250Z,47.57
2023-06-19T02:52:16.356Z,47.04
2023-06-19T02:53:16.454Z,47.64
2023-06-19T02:54:16.549Z,47.75
2023-06-19T02:55:16.671Z,47.54
2023-06-19T02:56:16.782Z,47.40
2023-06-19T02:57:16.904Z,47.51
2023-06-19T02:58:17.025Z,47.62
2023-06-19T02:59:17.156Z,47.61
2023-06-19T03:00:17.279Z,47.58
2023-06-19T03:01:17.445Z,47.58
2023-06-19T03:02:17.476Z,47.65
2023-06-19T03:03:17.680Z,47.67
2023-06-19T03:04:17.697Z,47.79
2023-06-19T03:05:17.761Z,47.62
2023-06-19T03:06:17.888Z,48.08
2023-06-19T03:07:18.082Z,47.93
2023-06-19T03:08:18.210Z,47.69
2023-06-19T03:09:18.342Z,48.29
2023-06-19T03:10:18.473Z,47.77
2023-06-19T03:11:18.622Z,47.66
2023-06-19T03:12:18.724Z,47.47
2023-06-19T03:13:18.860Z,47.41
2023-06-19T03:14:19.030Z,47.38
2023-06-19T03:15:19.056Z,47.39
2023-06-19T03:16:19.189Z,47.52
2023-06-19T03:17:19.382Z,47.62
2023-06-19T03:18:19.381Z,47.49
2023-06-19T03:19:19.482Z,46.97
2023-06-19T03:20:19.564Z,47.27
2023-06-19T03:21:20.394Z,47.46
2023-06-19T03:22:19.783Z,47.28
2023-06-19T03:23:20.378Z,47.13
2023-06-19T03:24:20.012Z,47.28
2023-06-19T03:25:20.137Z,47.66
2023-06-19T03:26:20.270Z,48.11
2023-06-19T03:27:20.391Z,48.53
2023-06-19T03:28:20.553Z,48.65
2023-06-19T03:29:20.725Z,48.70
2023-06-19T03:30:20.935Z,48.54
2023-06-19T03:31:21.079Z,48.63
2023-06-19T03:32:21.355Z,48.62
2023-06-19T03:33:21.417Z,48.57
2023-06-19T03:34:21.587Z,48.64
2023-06-19T03:35:21.775Z,48.65
2023-06-19T03:36:21.934Z,49.00
2023-06-19T03:37:22.066Z,49.15
2023-06-19T03:38:22.206Z,49.20
2023-06-19T03:39:22.363Z,49.39
2023-06-19T03:40:22.868Z,49.47
2023-06-19T03:41:22.714Z,49.46
2023-06-19T03:42:22.865Z,49.35
2023-06-19T03:43:23.030Z,49.22
2023-06-19T03:44:23.191Z,49.16
2023-06-19T03:45:23.312Z,49.03
2023-06-19T03:46:23.518Z,49.06
2023-06-19T03:47:23.636Z,49.16
2023-06-19T03:48:23.774Z,49.05
2023-06-19T03:49:23.902Z,49.09
2023-06-19T03:50:26.389Z,49.16
2023-06-19T03:51:24.135Z,48.72
2023-06-19T03:52:24.229Z,48.72
2023-06-19T03:53:24.319Z,48.59
2023-06-19T03:54:24.403Z,48.52
2023-06-19T03:55:24.512Z,48.45
2023-06-19T03:56:24.590Z,48.35
2023-06-19T03:57:24.692Z,48.65
2023-06-19T03:58:24.782Z,48.75
2023-06-19T03:59:24.883Z,48.62
2023-06-19T04:00:25.250Z,49.01
2023-06-19T04:01:25.088Z,48.86
2023-06-19T04:02:25.175Z,48.70
2023-06-19T04:03:25.301Z,48.46
2023-06-19T04:04:25.374Z,48.51
2023-06-19T04:05:25.439Z,48.54
2023-06-19T04:06:25.562Z,48.41
2023-06-19T04:07:25.643Z,48.49
2023-06-19T04:08:25.728Z,48.64
2023-06-19T04:09:25.835Z,48.75
2023-06-19T04:10:26.270Z,48.80
2023-06-19T04:11:26.034Z,48.70
2023-06-19T04:12:26.131Z,48.60
2023-06-19T04:13:26.289Z,48.54
2023-06-19T04:14:26.338Z,48.65
2023-06-19T04:15:26.481Z,48.66
2023-06-19T04:16:27.536Z,48.70
2023-06-19T04:17:26.696Z,48.64
2023-06-19T04:18:26.790Z,48.52
2023-06-19T04:19:27.914Z,48.12
2023-06-19T04:20:27.099Z,47.87
2023-06-19T04:21:27.128Z,47.64
2023-06-19T04:22:27.287Z,47.54
2023-06-19T04:23:27.290Z,47.47
2023-06-19T04:24:27.936Z,47.37
2023-06-19T04:25:27.469Z,47.46
2023-06-19T04:26:27.515Z,47.35
2023-06-19T04:27:27.586Z,47.42
2023-06-19T04:28:27.667Z,47.89
2023-06-19T04:29:27.745Z,47.92
2023-06-19T04:30:27.972Z,48.03
2023-06-19T04:31:27.938Z,48.30
2023-06-19T04:32:28.099Z,48.34
2023-06-19T04:33:29.122Z,48.39
2023-06-19T04:34:28.225Z,48.23
2023-06-19T04:35:28.316Z,48.26
2023-06-19T04:36:28.407Z,48.20
2023-06-19T04:37:28.485Z,48.13
2023-06-19T04:38:28.599Z,47.87
2023-06-19T04:39:28.624Z,47.91
2023-06-19T04:40:28.711Z,47.77
2023-06-19T04:41:28.798Z,47.32
2023-06-19T04:42:28.867Z,47.37
2023-06-19T04:43:30.417Z,47.48
2023-06-19T04:44:29.911Z,47.37
2023-06-19T04:45:29.103Z,47.62
2023-06-19T04:46:29.267Z,47.45
2023-06-19T04:47:39.784Z,47.42
2023-06-19T04:48:30.493Z,47.44
2023-06-19T04:49:29.426Z,47.50
2023-06-19T04:50:29.520Z,47.63
2023-06-19T04:51:29.616Z,47.69
2023-06-19T04:52:29.793Z,47.64
2023-06-19T04:53:29.801Z,47.75
2023-06-19T04:54:29.909Z,47.89
2023-06-19T04:55:29.994Z,47.81
2023-06-19T04:56:30.070Z,47.73
2023-06-19T04:57:30.183Z,47.74
2023-06-19T04:58:30.270Z,47.24
2023-06-19T04:59:30.365Z,47.24
2023-06-19T05:00:30.465Z,47.44
2023-06-19T05:01:30.572Z,47.49
2023-06-19T05:02:30.680Z,47.87
2023-06-19T05:03:30.764Z,47.48
2023-06-19T05:04:30.900Z,47.59
2023-06-19T05:05:30.966Z,47.89
2023-06-19T05:06:31.050Z,47.93
2023-06-19T05:07:31.159Z,47.55
2023-06-19T05:08:31.246Z,47.79
2023-06-19T05:09:31.917Z,47.82
2023-06-19T05:10:31.515Z,47.76
2023-06-19T05:11:31.632Z,47.77
2023-06-19T05:12:31.761Z,47.76
2023-06-19T05:13:31.896Z,47.86
2023-06-19T05:14:32.017Z,48.02
2023-06-19T05:15:32.145Z,47.96
2023-06-19T05:16:34.401Z,47.49
2023-06-19T05:17:32.409Z,47.45
2023-06-19T05:18:32.408Z,47.65
2023-06-19T05:19:32.467Z,47.69
2023-06-19T05:20:32.535Z,47.88
2023-06-19T05:21:32.608Z,47.84
2023-06-19T05:22:32.670Z,47.79
2023-06-19T05:23:32.724Z,47.86
2023-06-19T05:24:32.832Z,47.92
2023-06-19T05:25:32.851Z,47.81
2023-06-19T05:26:32.917Z,47.49
2023-06-19T05:27:32.976Z,47.36
2023-06-19T05:28:33.036Z,47.04
2023-06-19T05:29:33.083Z,47.37
2023-06-19T05:30:33.233Z,47.32
2023-06-19T05:31:33.203Z,47.02
2023-06-19T05:32:33.331Z,47.21
2023-06-19T05:33:33.310Z,47.15
2023-06-19T05:34:33.357Z,46.93
2023-06-19T05:35:33.419Z,46.65
2023-06-19T05:36:33.472Z,46.68
2023-06-19T05:37:33.507Z,46.94
2023-06-19T05:38:33.546Z,46.73
2023-06-19T05:39:33.585Z,46.46
2023-06-19T05:40:33.628Z,46.57
2023-06-19T05:41:33.692Z,46.58
2023-06-19T05:42:33.843Z,46.70
2023-06-19T05:43:34.948Z,46.74
2023-06-19T05:44:34.063Z,46.86
2023-06-19T05:45:34.147Z,46.83
2023-06-19T05:46:34.240Z,46.94
2023-06-19T05:47:34.363Z,46.91
2023-06-19T05:48:34.432Z,46.63
2023-06-19T05:49:34.531Z,46.38
2023-06-19T05:50:34.608Z,46.37
2023-06-19T05:51:34.683Z,46.44
2023-06-19T05:52:34.765Z,46.09
2023-06-19T05:53:34.844Z,46.15
2023-06-19T05:54:34.957Z,46.46
2023-06-19T05:55:35.068Z,46.66
2023-06-19T05:56:35.128Z,46.59
2023-06-19T05:57:35.289Z,46.50
2023-06-19T05:58:35.298Z,46.24
2023-06-19T05:59:35.455Z,46.28
2023-06-19T06:00:35.609Z,46.60
2023-06-19T06:01:35.574Z,46.49
2023-06-19T06:02:35.714Z,46.57
2023-06-19T06:03:35.792Z,45.83
2023-06-19T06:04:36.020Z,45.66
2023-06-19T06:05:35.960Z,45.43
2023-06-19T06:06:36.034Z,45.44
2023-06-19T06:07:36.558Z,45.51
2023-06-19T06:08:36.165Z,45.46
2023-06-19T06:09:36.258Z,45.62
2023-06-19T06:10:36.377Z,45.59
2023-06-19T06:11:36.530Z,45.27
2023-06-19T06:12:36.939Z,45.20
2023-06-19T06:13:36.799Z,45.19
2023-06-19T06:14:37.449Z,45.34
2023-06-19T06:15:36.909Z,45.27
2023-06-19T06:16:37.032Z,45.16
2023-06-19T06:17:37.113Z,45.02
2023-06-19T06:18:37.176Z,45.04
2023-06-19T06:19:37.360Z,45.11
2023-06-19T06:20:37.395Z,45.20
2023-06-19T06:21:37.516Z,45.00
2023-06-19T06:22:37.698Z,45.06
2023-06-19T06:23:37.778Z,45.35
2023-06-19T06:24:37.921Z,45.04
2023-06-19T06:25:37.982Z,45.00
2023-06-19T06:26:38.986Z,44.85
2023-06-19T06:27:38.132Z,44.87
2023-06-19T06:28:38.189Z,44.95
2023-06-19T06:29:39.331Z,44.94
2023-06-19T06:30:38.441Z,44.86
2023-06-19T06:31:38.509Z,44.90
2023-06-19T06:32:38.597Z,44.85
2023-06-19T06:33:38.683Z,44.79
2023-06-19T06:34:38.899Z,44.43
2023-06-19T06:35:39.086Z,43.66
2023-06-19T06:36:46.389Z,43.81
2023-06-19T06:37:40.286Z,44.10
2023-06-19T06:38:39.323Z,44.32
2023-06-19T06:39:39.345Z,44.08
2023-06-19T06:40:39.456Z,43.97
2023-06-19T06:41:39.420Z,43.92
2023-06-19T06:42:39.450Z,43.66
2023-06-19T06:43:39.481Z,43.50
2023-06-19T06:44:39.523Z,43.10
2023-06-19T06:45:39.660Z,43.05
2023-06-19T06:46:39.592Z,43.03
2023-06-19T06:47:39.692Z,43.03
2023-06-19T06:48:39.760Z,43.08
2023-06-19T06:49:39.852Z,43.25
2023-06-19T06:50:39.933Z,43.16
2023-06-19T06:51:40.017Z,43.19
2023-06-19T06:52:40.086Z,43.14
2023-06-19T06:53:40.959Z,42.94
2023-06-19T06:54:40.320Z,43.03
2023-06-19T06:55:40.343Z,42.86
2023-06-19T06:56:40.421Z,42.92
2023-06-19T06:57:40.477Z,42.69
2023-06-19T06:58:40.551Z,42.59
2023-06-19T06:59:40.594Z,42.65
2023-06-19T07:00:40.664Z,42.25
2023-06-19T07:01:40.713Z,42.12
2023-06-19T07:02:40.899Z,42.35
2023-06-19T07:03:40.886Z,42.55
2023-06-19T07:04:40.854Z,42.57
2023-06-19T07:05:40.914Z,42.69
2023-06-19T07:06:40.951Z,42.66
2023-06-19T07:07:41.028Z,42.79
2023-06-19T07:08:41.065Z,42.83
2023-06-19T07:09:41.182Z,42.82
2023-06-19T07:10:41.147Z,42.87
2023-06-19T07:11:41.207Z,42.76
2023-06-19T07:12:41.264Z,42.79
2023-06-19T07:13:41.379Z,42.55
2023-06-19T07:14:41.383Z,42.57
2023-06-19T07:15:41.435Z,42.58
2023-06-19T07:16:41.522Z,42.77
2023-06-19T07:17:41.671Z,42.79
2023-06-19T07:18:41.581Z,42.91
2023-06-19T07:19:41.612Z,42.97
2023-06-19T07:20:41.676Z,42.72
2023-06-19T07:21:41.760Z,42.76
2023-06-19T07:22:41.829Z,42.99
2023-06-19T07:23:42.480Z,42.91
2023-06-19T07:24:42.061Z,42.74
2023-06-19T07:25:41.989Z,42.70
2023-06-19T07:26:42.027Z,42.75
2023-06-19T07:27:42.108Z,42.69
2023-06-19T07:28:42.186Z,42.71
2023-06-19T07:29:42.170Z,42.68
2023-06-19T07:30:42.184Z,42.52
2023-06-19T07:31:42.198Z,42.71
2023-06-19T07:32:42.260Z,42.71
2023-06-19T07:33:42.234Z,42.53
2023-06-19T07:34:42.273Z,42.73
2023-06-19T07:35:42.343Z,42.49
2023-06-19T07:36:42.310Z,42.25
2023-06-19T07:37:42.381Z,42.25
2023-06-19T07:38:42.508Z,42.02
2023-06-19T07:39:42.495Z,42.00
2023-06-19T07:40:42.571Z,41.80
2023-06-19T07:41:42.582Z,41.66
2023-06-19T07:42:44.583Z,41.59
2023-06-19T07:43:42.737Z,41.68
2023-06-19T07:44:42.755Z,41.79
2023-06-19T07:45:42.839Z,41.58
2023-06-19T07:46:42.865Z,41.46
2023-06-19T07:47:42.960Z,41.45
2023-06-19T07:48:42.949Z,41.38
2023-06-19T07:49:43.120Z,41.13
2023-06-19T07:50:43.049Z,41.05
2023-06-19T07:51:43.142Z,40.80
2023-06-19T07:52:43.184Z,40.71
2023-06-19T07:53:43.224Z,40.55
2023-06-19T07:54:43.361Z,40.74
2023-06-19T07:55:43.234Z,40.56
2023-06-19T07:56:43.261Z,40.19
2023-06-19T07:57:43.301Z,39.87
2023-06-19T07:58:43.311Z,39.90
2023-06-19T07:59:43.474Z,40.29
2023-06-19T08:00:43.341Z,40.13
2023-06-19T08:01:43.378Z,39.99
2023-06-19T08:02:43.459Z,40.27
2023-06-19T08:03:43.446Z,40.56
2023-06-19T08:04:43.447Z,40.01
2023-06-19T08:05:43.438Z,40.06
2023-06-19T08:06:43.467Z,40.15
2023-06-19T08:07:43.485Z,39.93
2023-06-19T08:08:43.493Z,39.88
2023-06-19T08:09:43.507Z,40.45
2023-06-19T08:10:43.550Z,39.29
2023-06-19T08:11:43.554Z,39.12
2023-06-19T08:12:43.999Z,38.85
2023-06-19T08:13:43.556Z,38.79
2023-06-19T08:14:43.677Z,38.98
2023-06-19T08:15:44.455Z,38.98
2023-06-19T08:16:43.662Z,38.77
2023-06-19T08:17:43.672Z,38.80
2023-06-19T08:18:43.679Z,38.28
2023-06-19T08:19:43.614Z,38.02
2023-06-19T08:20:43.611Z,38.66
2023-06-19T08:21:43.582Z,39.65
2023-06-19T08:22:43.570Z,38.95
2023-06-19T08:23:43.547Z,38.65
2023-06-19T08:24:43.568Z,38.33
2023-06-19T08:25:43.529Z,37.66
2023-06-19T08:26:43.551Z,36.83
2023-06-19T08:27:43.472Z,36.40
2023-06-19T08:28:43.450Z,36.22
2023-06-19T08:29:43.444Z,35.88
2023-06-19T08:30:43.441Z,36.07
2023-06-19T08:31:43.466Z,37.06
2023-06-19T08:32:43.530Z,38.46
2023-06-19T08:33:44.423Z,38.21
2023-06-19T08:34:43.589Z,37.54
2023-06-19T08:35:43.548Z,37.59
2023-06-19T08:36:44.508Z,37.50
2023-06-19T08:37:43.595Z,37.20
2023-06-19T08:38:44.418Z,37.23
2023-06-19T08:39:43.636Z,37.12
2023-06-19T08:40:43.658Z,37.00
2023-06-19T08:41:43.759Z,36.72
2023-06-19T08:42:43.710Z,35.69
2023-06-19T08:43:43.712Z,35.85
2023-06-19T08:44:43.719Z,36.23
2023-06-19T08:45:43.784Z,36.66
2023-06-19T08:46:43.783Z,36.30
2023-06-19T08:47:43.790Z,36.18
2023-06-19T08:48:43.786Z,35.24
2023-06-19T08:49:43.817Z,34.69
2023-06-19T08:50:44.770Z,34.46
2023-06-19T08:51:43.754Z,34.60
2023-06-19T08:52:43.725Z,34.49
2023-06-19T08:53:43.710Z,35.33
2023-06-19T08:54:43.684Z,35.28
2023-06-19T08:55:44.015Z,35.51
2023-06-19T08:56:43.637Z,35.07
2023-06-19T08:57:43.615Z,34.33
2023-06-19T08:58:43.562Z,34.85
2023-06-19T08:59:43.564Z,35.05
2023-06-19T09:00:43.573Z,34.78
2023-06-19T09:01:43.570Z,35.06
2023-06-19T09:02:43.675Z,33.57
2023-06-19T09:03:43.676Z,34.03
2023-06-19T09:04:43.613Z,34.88
2023-06-19T09:05:46.772Z,34.51
2023-06-19T09:06:43.652Z,34.02
2023-06-19T09:07:43.538Z,33.90
2023-06-19T09:08:43.491Z,33.77
2023-06-19T09:09:43.449Z,33.01
2023-06-19T09:10:43.401Z,33.03
2023-06-19T09:11:43.351Z,33.14
2023-06-19T09:12:43.387Z,34.38
2023-06-19T09:13:43.269Z,34.08
2023-06-19T09:14:43.224Z,34.19
2023-06-19T09:15:43.172Z,33.93
2023-06-19T09:16:43.140Z,33.92
2023-06-19T09:17:43.150Z,34.78
2023-06-19T09:18:43.059Z,34.13
2023-06-19T09:19:43.004Z,33.95
2023-06-19T09:20:43.026Z,33.60
2023-06-19T09:21:44.021Z,33.93
2023-06-19T09:22:42.859Z,33.86
2023-06-19T09:23:42.822Z,33.55
2023-06-19T09:24:42.916Z,33.43
2023-06-19T09:25:42.920Z,33.83
2023-06-19T09:26:42.726Z,33.72
2023-06-19T09:27:42.757Z,33.51
2023-06-19T09:28:42.802Z,33.19
2023-06-19T09:29:42.827Z,33.28
2023-06-19T09:30:42.805Z,33.06
2023-06-19T09:31:42.812Z,32.56
2023-06-19T09:32:42.880Z,32.75
2023-06-19T09:33:42.861Z,32.45
2023-06-19T09:34:42.726Z,32.63
2023-06-19T09:35:42.690Z,32.63
2023-06-19T09:36:42.668Z,32.63
2023-06-19T09:37:42.677Z,33.57
2023-06-19T09:38:42.636Z,32.83
2023-06-19T09:39:42.596Z,32.29
2023-06-19T09:40:42.552Z,31.80
2023-06-19T09:41:42.677Z,30.81
2023-06-19T09:42:42.491Z,32.43
2023-06-19T09:43:42.469Z,33.14
2023-06-19T09:44:46.103Z,32.20
2023-06-19T09:45:43.045Z,32.42
2023-06-19T09:46:42.331Z,31.60
2023-06-19T09:47:42.324Z,31.77
2023-06-19T09:48:42.178Z,31.75
2023-06-19T09:49:42.109Z,32.88
2023-06-19T09:50:42.043Z,32.74
2023-06-19T09:51:41.974Z,32.18
2023-06-19T09:52:41.909Z,31.41
2023-06-19T09:53:41.890Z,32.29
2023-06-19T09:54:41.770Z,32.25
2023-06-19T09:55:41.722Z,32.02
2023-06-19T09:56:41.661Z,31.95
2023-06-19T09:57:41.623Z,32.24
2023-06-19T09:58:41.535Z,31.91
2023-06-19T09:59:41.502Z,31.77
2023-06-19T10:00:41.417Z,32.63
2023-06-19T10:01:41.339Z,32.35
2023-06-19T10:02:41.354Z,32.21
2023-06-19T10:03:41.300Z,31.80
2023-06-19T10:04:41.159Z,31.46
2023-06-19T10:05:41.095Z,31.04
2023-06-19T10:06:41.030Z,32.24
2023-06-19T10:07:40.983Z,32.28
2023-06-19T10:08:40.922Z,31.75
2023-06-19T10:09:40.988Z,32.43
2023-06-19T10:10:40.762Z,31.83
2023-06-19T10:11:40.686Z,31.55
2023-06-19T10:12:40.616Z,31.40
2023-06-19T10:13:40.585Z,31.27
2023-06-19T10:14:40.480Z,30.89
2023-06-19T10:15:40.485Z,31.53
2023-06-19T10:16:40.405Z,32.08
2023-06-19T10:17:40.277Z,30.86
2023-06-19T10:18:40.157Z,30.83
2023-06-19T10:19:40.078Z,31.15
2023-06-19T10:20:46.371Z,31.43
2023-06-19T10:21:40.994Z,30.67
2023-06-19T10:22:39.884Z,30.73
2023-06-19T10:23:39.882Z,31.00
2023-06-19T10:24:39.843Z,31.31
2023-06-19T10:25:39.683Z,30.85
2023-06-19T10:26:39.591Z,31.08
2023-06-19T10:27:39.536Z,30.97
2023-06-19T10:28:39.437Z,30.93
2023-06-19T10:29:39.424Z,31.28
2023-06-19T10:30:39.324Z,31.05
2023-06-19T10:31:39.188Z,31.19
2023-06-19T10:32:39.125Z,30.89
2023-06-19T10:33:39.016Z,30.46
2023-06-19T10:34:39.573Z,30.19
2023-06-19T10:35:38.842Z,30.20
2023-06-19T10:36:38.758Z,30.18
2023-06-19T10:37:38.753Z,30.38
2023-06-19T10:38:38.634Z,30.30
2023-06-19T10:39:38.574Z,29.11
2023-06-19T10:40:38.553Z,29.08
2023-06-19T10:41:38.524Z,29.72
2023-06-19T10:42:38.484Z,29.82
2023-06-19T10:43:38.981Z,29.37
2023-06-19T10:44:38.442Z,29.53
2023-06-19T10:45:38.453Z,29.78
2023-06-19T10:46:38.413Z,30.02
2023-06-19T10:47:38.353Z,29.04
2023-06-19T10:48:38.445Z,28.34
2023-06-19T10:49:38.314Z,28.50
2023-06-19T10:50:38.257Z,28.06
2023-06-19T10:51:38.219Z,27.15
2023-06-19T10:52:38.274Z,26.93
2023-06-19T10:53:38.146Z,28.62
2023-06-19T10:54:38.108Z,29.34
2023-06-19T10:55:38.057Z,28.68
2023-06-19T10:56:38.019Z,28.51
2023-06-19T10:57:38.008Z,28.30
2023-06-19T10:58:37.910Z,28.87
2023-06-19T10:59:37.850Z,28.96
2023-06-19T11:00:37.791Z,28.65
2023-06-19T11:01:37.819Z,28.43
2023-06-19T11:02:37.839Z,25.96
2023-06-19T11:03:37.712Z,25.88
2023-06-19T11:04:37.648Z,26.02
2023-06-19T11:05:37.621Z,26.56
2023-06-19T11:06:37.584Z,27.90
2023-06-19T11:07:37.525Z,27.53
2023-06-19T11:08:37.502Z,25.84
2023-06-19T11:09:37.471Z,26.05
2023-06-19T11:10:37.432Z,27.34
2023-06-19T11:11:37.385Z,28.17
2023-06-19T11:12:37.360Z,27.66
2023-06-19T11:13:37.323Z,28.04
2023-06-19T11:14:37.309Z,27.31
2023-06-19T11:15:37.280Z,27.51
2023-06-19T11:16:37.277Z,28.14
2023-06-19T11:17:37.215Z,27.17
2023-06-19T11:18:37.148Z,27.27
2023-06-19T11:19:37.113Z,27.92
2023-06-19T11:20:37.129Z,28.38
2023-06-19T11:21:37.025Z,27.73
2023-06-19T11:22:36.991Z,27.33
2023-06-19T11:23:37.048Z,27.39
2023-06-19T11:24:36.982Z,27.05
2023-06-19T11:25:36.839Z,26.44
2023-06-19T11:26:36.792Z,27.42
2023-06-19T11:27:36.858Z,28.19
2023-06-19T11:28:37.581Z,27.99
2023-06-19T11:29:36.661Z,27.74
2023-06-19T11:30:37.594Z,27.64
2023-06-19T11:31:36.493Z,27.29
2023-06-19T11:32:36.471Z,27.73
2023-06-19T11:33:36.329Z,27.75
2023-06-19T11:34:36.227Z,28.50
2023-06-19T11:35:36.145Z,27.90
2023-06-19T11:36:36.071Z,28.41
2023-06-19T11:37:36.009Z,27.71
2023-06-19T11:38:35.909Z,27.27
2023-06-19T11:39:35.832Z,27.43
2023-06-19T11:40:35.776Z,27.32
2023-06-19T11:41:35.755Z,27.83
2023-06-19T11:42:35.744Z,27.34
2023-06-19T11:43:35.691Z,27.29
2023-06-19T11:44:36.814Z,29.14
2023-06-19T11:45:35.584Z,29.04
2023-06-19T11:46:35.569Z,27.82
2023-06-19T11:47:35.511Z,27.85
2023-06-19T11:48:35.422Z,27.32
2023-06-19T11:49:35.353Z,27.08
2023-06-19T11:50:35.288Z,26.44
2023-06-19T11:51:35.149Z,25.45
2023-06-19T11:52:35.101Z,24.86
2023-06-19T11:53:35.011Z,25.37
2023-06-19T11:54:35.172Z,26.76
2023-06-19T11:55:36.188Z,27.10
2023-06-19T11:56:35.225Z,26.44
2023-06-19T11:57:35.130Z,24.78
2023-06-19T11:58:35.033Z,24.46
2023-06-19T11:59:34.936Z,23.77
2023-06-19T12:00:34.849Z,26.63
2023-06-19T12:01:34.726Z,25.64
2023-06-19T12:02:35.215Z,25.00
2023-06-19T12:03:34.636Z,24.76
2023-06-19T12:04:35.166Z,24.93
2023-06-19T12:05:34.428Z,24.90
2023-06-19T12:06:34.373Z,25.60
2023-06-19T12:07:34.331Z,26.04
2023-06-19T12:08:34.281Z,26.16
2023-06-19T12:09:34.242Z,26.58
2023-06-19T12:10:34.155Z,26.36
2023-06-19T12:11:34.107Z,25.21
2023-06-19T12:12:34.033Z,26.43
2023-06-19T12:13:33.973Z,25.13
2023-06-19T12:14:33.918Z,25.69
2023-06-19T12:15:35.424Z,25.77
2023-06-19T12:16:33.763Z,25.50
2023-06-19T12:17:33.646Z,25.40
2023-06-19T12:18:33.503Z,25.00
2023-06-19T12:19:33.436Z,25.57
2023-06-19T12:20:33.292Z,25.88
2023-06-19T12:21:38.637Z,25.85
2023-06-19T12:22:34.055Z,26.72
2023-06-19T12:23:32.942Z,26.82
2023-06-19T12:24:32.915Z,26.66
2023-06-19T12:25:32.752Z,25.08
2023-06-19T12:26:32.604Z,25.28
2023-06-19T12:27:32.639Z,25.58
2023-06-19T12:28:32.401Z,26.68
2023-06-19T12:29:32.298Z,25.96
2023-06-19T12:30:32.206Z,25.95
2023-06-19T12:31:32.067Z,25.91
2023-06-19T12:32:32.113Z,26.20
2023-06-19T12:33:31.872Z,26.39
2023-06-19T12:34:32.106Z,25.09
2023-06-19T12:35:31.697Z,25.84
2023-06-19T12:36:31.549Z,27.38
2023-06-19T12:37:31.453Z,27.59
2023-06-19T12:38:31.358Z,27.61
2023-06-19T12:39:31.313Z,27.93
2023-06-19T12:40:31.148Z,27.78
2023-06-19T12:41:31.057Z,27.19
2023-06-19T12:42:30.950Z,27.84
2023-06-19T12:43:30.958Z,27.52
2023-06-19T12:44:30.801Z,27.14
2023-06-19T12:45:30.769Z,26.43
2023-06-19T12:46:30.787Z,26.37
2023-06-19T12:47:30.766Z,26.50
2023-06-19T12:48:30.551Z,26.52
2023-06-19T12:49:30.495Z,26.14
2023-06-19T12:50:30.383Z,25.93
2023-06-19T12:51:30.378Z,26.03
2023-06-19T12:52:30.577Z,26.22
2023-06-19T12:53:30.749Z,26.10